Time;durP1;ratioP1;P1;durP2;ratioP2;P2;SDS_P1;SDS_P2;PMS_P1;PMS_P2;Temp;Humidity;BMP_temperature;BMP_pressure;BME280_temperature;BME280_humidity;BME280_pressure;Samples;Min_cycle;Max_cycle;Signal;HPM_P1;HPM_P2
2023/04/13 04:32:51;;;;;;;10.40;2.40;;;8.10;72.40;;;;;;4894176;29;20111;-76
2023/04/13 04:35:24;;;;;;;8.40;2.38;;;8.00;72.60;;;;;;4898683;29;20029;-76
2023/04/13 04:37:54;;;;;;;12.55;2.50;;;8.00;72.20;;;;;;4899732;29;20036;-76
2023/04/13 04:40:21;;;;;;;9.25;1.92;;;8.00;72.40;;;;;;4900060;29;20040;-76
2023/04/13 04:42:47;;;;;;;7.95;1.77;;;8.00;72.40;;;;;;4900099;29;20029;-76
2023/04/13 04:45:15;;;;;;;5.43;1.63;;;8.00;72.50;;;;;;4900014;29;20084;-76
2023/04/13 04:47:42;;;;;;;4.28;1.45;;;8.00;72.30;;;;;;4913467;29;20069;-76
2023/04/13 04:50:11;;;;;;;10.75;3.03;;;8.00;72.30;;;;;;4898501;29;20495;-77
2023/04/13 04:52:38;;;;;;;8.52;2.42;;;8.00;72.10;;;;;;4899350;29;20035;-79
2023/04/13 04:55:05;;;;;;;4.72;1.67;;;8.00;71.90;;;;;;4899883;29;20032;-78
2023/04/13 04:57:32;;;;;;;8.73;2.28;;;8.00;72.10;;;;;;4915857;29;20033;-79
2023/04/13 04:59:58;;;;;;;5.60;1.73;;;8.00;72.00;;;;;;4903234;29;20032;-79
2023/04/13 05:02:24;;;;;;;7.45;2.22;;;8.00;72.00;;;;;;4903050;29;20582;-78
2023/04/13 05:04:51;;;;;;;15.43;2.03;;;8.00;72.10;;;;;;4914689;29;20047;-78
2023/04/13 05:07:17;;;;;;;9.30;1.88;;;8.00;72.00;;;;;;4909872;29;20036;-79
2023/04/13 05:09:44;;;;;;;10.48;1.90;;;8.00;71.90;;;;;;4903355;29;20508;-81
2023/04/13 05:12:10;;;;;;;11.15;1.75;;;8.00;71.80;;;;;;4917906;29;20406;-76
2023/04/13 05:14:36;;;;;;;8.75;1.83;;;8.00;71.80;;;;;;4907295;29;20104;-77
2023/04/13 05:17:02;;;;;;;6.13;1.92;;;8.00;71.70;;;;;;4903779;29;20411;-76
2023/04/13 05:19:28;;;;;;;10.20;1.88;;;8.00;71.90;;;;;;4906059;29;20024;-79
2023/04/13 05:21:53;;;;;;;7.47;1.55;;;8.00;72.00;;;;;;4902479;29;20479;-79
2023/04/13 05:24:19;;;;;;;5.72;1.77;;;8.00;71.80;;;;;;4902931;29;20056;-78
2023/04/13 05:26:45;;;;;;;9.02;2.33;;;8.00;71.90;;;;;;4918215;29;20066;-78
2023/04/13 05:29:11;;;;;;;5.15;1.70;;;8.00;71.70;;;;;;4903273;29;20550;-79
2023/04/13 05:31:37;;;;;;;8.07;2.22;;;7.90;71.70;;;;;;4914953;29;20059;-79
2023/04/13 05:34:03;;;;;;;5.85;1.70;;;7.90;71.70;;;;;;4920859;29;20040;-80
2023/04/13 05:36:30;;;;;;;5.32;1.90;;;7.90;71.80;;;;;;4922400;29;20056;-77
2023/04/13 05:38:57;;;;;;;3.28;1.73;;;7.90;71.80;;;;;;4904636;29;20059;-77
2023/04/13 05:41:23;;;;;;;10.75;1.90;;;7.90;71.80;;;;;;4921021;29;20451;-77
2023/04/13 05:43:48;;;;;;;6.00;1.38;;;7.90;71.90;;;;;;4921021;29;20071;-84
2023/04/13 05:46:17;;;;;;;7.43;2.22;;;8.00;71.60;;;;;;4919690;29;20513;-78
2023/04/13 05:48:42;;;;;;;8.75;1.75;;;8.00;71.50;;;;;;4920784;29;20127;-79
2023/04/13 05:51:12;;;;;;;9.88;1.40;;;8.00;71.40;;;;;;4917744;29;20069;-79
2023/04/13 05:53:38;;;;;;;5.60;1.75;;;8.00;71.40;;;;;;4924318;29;20020;-79
2023/04/13 05:56:04;;;;;;;7.75;1.58;;;8.00;71.50;;;;;;4920149;29;20044;-79
2023/04/13 05:58:30;;;;;;;4.50;1.50;;;8.00;71.50;;;;;;4920509;29;20152;-79
2023/04/13 06:00:56;;;;;;;9.63;2.42;;;8.00;71.60;;;;;;4921645;29;20029;-81
2023/04/13 06:03:21;;;;;;;5.47;1.65;;;8.10;71.40;;;;;;4921120;29;20067;-78
2023/04/13 06:05:47;;;;;;;6.57;1.85;;;8.10;71.30;;;;;;4918192;29;20070;-77
2023/04/13 06:08:13;;;;;;;11.23;2.95;;;8.20;71.30;;;;;;4919597;29;20088;-78
2023/04/13 06:10:39;;;;;;;5.20;1.88;;;8.20;71.10;;;;;;4919248;29;20024;-77
2023/04/13 06:13:05;;;;;;;4.88;1.67;;;8.10;71.30;;;;;;4920257;29;20063;-78
2023/04/13 06:15:31;;;;;;;5.93;1.80;;;8.20;71.20;;;;;;4912129;29;20041;-77
2023/04/13 06:17:56;;;;;;;7.18;1.63;;;8.20;71.20;;;;;;4901341;29;20028;-78
2023/04/13 06:20:22;;;;;;;4.38;1.92;;;8.20;71.10;;;;;;4915627;29;20029;-77
2023/04/13 06:22:48;;;;;;;6.45;1.50;;;8.20;71.00;;;;;;4920317;29;20388;-77
2023/04/13 06:25:15;;;;;;;5.25;1.70;;;8.20;71.00;;;;;;4919338;29;20072;-78
2023/04/13 06:27:42;;;;;;;3.40;1.58;;;8.20;71.00;;;;;;4920770;29;20103;-78
2023/04/13 06:30:09;;;;;;;10.55;2.20;;;8.30;70.90;;;;;;4920161;29;20676;-80
2023/04/13 06:32:35;;;;;;;9.35;1.92;;;8.30;70.60;;;;;;4919901;29;20028;-81
2023/04/13 06:35:02;;;;;;;5.97;2.03;;;8.30;70.80;;;;;;4919716;29;20035;-81
2023/04/13 06:37:29;;;;;;;7.85;2.25;;;8.30;70.90;;;;;;4920268;29;20059;-82
2023/04/13 06:39:56;;;;;;;6.03;2.15;;;8.30;70.90;;;;;;4904014;29;20036;-82
2023/04/13 06:42:22;;;;;;;4.30;1.90;;;8.40;70.40;;;;;;4920696;29;20088;-82
2023/04/13 06:44:48;;;;;;;6.90;2.80;;;8.50;70.20;;;;;;4920921;29;20032;-82
2023/04/13 06:47:14;;;;;;;7.07;2.00;;;8.50;70.10;;;;;;4920645;29;20111;-82
2023/04/13 06:49:40;;;;;;;10.30;2.00;;;8.60;70.20;;;;;;4902766;29;20038;-82
2023/04/13 06:52:06;;;;;;;6.82;1.83;;;8.70;69.90;;;;;;4920914;29;20407;-82
2023/04/13 06:54:32;;;;;;;7.60;1.60;;;8.70;69.90;;;;;;4920930;29;20028;-82
2023/04/13 06:56:58;;;;;;;14.80;2.38;;;8.90;69.40;;;;;;4903939;29;20024;-82
2023/04/13 06:59:23;;;;;;;7.80;2.00;;;9.00;68.90;;;;;;4920266;29;20042;-82
2023/04/13 07:01:49;;;;;;;12.05;2.72;;;9.10;68.60;;;;;;4920674;29;20106;-82
2023/04/13 07:04:15;;;;;;;5.53;2.00;;;9.20;68.20;;;;;;4919396;29;20056;-82
2023/04/13 07:06:41;;;;;;;6.30;1.90;;;9.30;67.80;;;;;;4920623;29;20021;-82
2023/04/13 07:09:06;;;;;;;5.78;1.85;;;9.20;67.60;;;;;;4903126;29;20040;-83
2023/04/13 07:11:32;;;;;;;10.02;2.67;;;9.30;67.70;;;;;;4932309;29;20055;-82
2023/04/13 07:13:57;;;;;;;4.57;2.25;;;9.30;68.00;;;;;;4932762;29;20114;-83
2023/04/13 07:16:23;;;;;;;10.43;2.78;;;9.40;67.60;;;;;;4920430;29;20025;-83
2023/04/13 07:18:49;;;;;;;8.15;2.45;;;9.60;67.60;;;;;;4919254;29;20028;-83
2023/04/13 07:21:15;;;;;;;7.13;2.80;;;9.90;66.70;;;;;;4919655;29;20035;-83
2023/04/13 07:23:41;;;;;;;13.45;3.95;;;10.10;65.90;;;;;;4920267;29;20107;-83
2023/04/13 07:26:13;;;;;;;12.05;3.10;;;10.40;65.00;;;;;;4919837;29;20031;-83
2023/04/13 07:28:39;;;;;;;13.93;3.97;;;10.60;64.50;;;;;;4920265;29;20038;-83
2023/04/13 07:31:05;;;;;;;14.73;5.03;;;10.80;63.40;;;;;;4920018;29;20048;-83
2023/04/13 07:33:31;;;;;;;14.63;4.32;;;11.20;62.50;;;;;;4919904;29;20465;-84
2023/04/13 07:35:57;;;;;;;20.52;5.57;;;11.90;61.10;;;;;;4919493;29;20024;-84
2023/04/13 07:38:22;;;;;;;12.35;4.88;;;12.70;59.30;;;;;;4920333;29;20515;-84
2023/04/13 07:40:48;;;;;;;13.55;4.90;;;14.30;56.40;;;;;;4920072;29;20020;-84
2023/04/13 07:43:14;;;;;;;12.77;4.22;;;15.40;52.80;;;;;;4918575;29;20569;-85
2023/04/13 07:45:40;;;;;;;8.40;3.15;;;17.30;49.30;;;;;;4902704;29;20496;-84
2023/04/13 07:48:05;;;;;;;6.00;3.28;;;18.70;44.50;;;;;;4920122;29;20039;-85
2023/04/13 07:50:31;;;;;;;6.65;2.65;;;20.40;41.80;;;;;;4919973;29;20067;-83
2023/04/13 07:52:57;;;;;;;11.48;3.85;;;21.80;38.10;;;;;;4918478;29;20036;-85
2023/04/13 07:55:22;;;;;;;7.68;2.90;;;22.80;36.80;;;;;;4919759;29;20020;-83
2023/04/13 07:57:48;;;;;;;8.48;3.03;;;23.80;34.70;;;;;;4903049;29;20092;-83
2023/04/13 08:00:15;;;;;;;4.82;2.42;;;24.70;34.50;;;;;;4919205;29;20565;-83
2023/04/13 08:02:41;;;;;;;6.65;2.70;;;25.40;32.10;;;;;;4919473;29;20411;-83
2023/04/13 08:05:07;;;;;;;10.30;2.30;;;26.10;31.30;;;;;;4919802;29;20040;-83
2023/04/13 08:07:33;;;;;;;7.13;2.38;;;26.80;30.90;;;;;;4918599;29;20029;-83
2023/04/13 08:10:02;;;;;;;6.10;1.67;;;27.30;29.90;;;;;;4919733;29;20020;-85
2023/04/13 08:12:27;;;;;;;4.60;1.90;;;27.50;29.00;;;;;;4910313;29;20526;-84
2023/04/13 08:14:53;;;;;;;7.07;1.70;;;28.00;28.20;;;;;;4918364;29;20028;-83
2023/04/13 08:17:18;;;;;;;4.72;1.20;;;28.30;27.90;;;;;;4919356;29;20052;-84
2023/04/13 08:19:44;;;;;;;3.78;1.30;;;28.70;27.70;;;;;;4918629;29;20060;-84
2023/04/13 08:22:10;;;;;;;4.35;1.42;;;28.80;26.60;;;;;;4918991;29;20032;-86
2023/04/13 08:24:36;;;;;;;5.40;1.20;;;28.80;26.90;;;;;;4919427;29;20034;-83
2023/04/13 08:27:01;;;;;;;2.47;1.00;;;28.40;26.70;;;;;;4918815;29;20044;-83
2023/04/13 08:29:27;;;;;;;5.25;1.73;;;27.70;27.80;;;;;;4918631;29;20032;-85
2023/04/13 08:31:55;;;;;;;5.47;1.30;;;27.30;28.50;;;;;;4933222;29;20426;-84
2023/04/13 08:34:21;;;;;;;4.45;1.08;;;27.20;28.30;;;;;;4909030;29;20443;-84
2023/04/13 08:36:46;;;;;;;5.90;0.95;;;27.50;28.10;;;;;;4921986;29;20020;-84
2023/04/13 08:39:13;;;;;;;2.72;1.00;;;27.70;28.60;;;;;;4922774;29;20028;-83
2023/04/13 08:41:42;;;;;;;6.53;1.10;;;27.10;27.90;;;;;;4906416;29;20013;-83
2023/04/13 08:44:09;;;;;;;3.35;1.20;;;26.90;27.80;;;;;;4906282;29;20036;-83
2023/04/13 08:46:36;;;;;;;3.30;1.08;;;27.30;27.80;;;;;;4922454;29;20185;-82
2023/04/13 08:49:02;;;;;;;5.97;1.02;;;27.80;28.20;;;;;;4923321;29;20028;-83
2023/04/13 08:51:31;;;;;;;3.35;0.90;;;27.80;27.90;;;;;;4922040;29;20039;-83
2023/04/13 08:53:58;;;;;;;4.72;1.23;;;28.00;27.40;;;;;;4922496;29;20859;-82
2023/04/13 08:56:25;;;;;;;3.53;0.88;;;28.30;27.20;;;;;;4922908;29;20024;-83
2023/04/13 08:58:55;;;;;;;3.60;0.82;;;28.10;27.00;;;;;;4922972;29;20031;-83
2023/04/13 09:01:23;;;;;;;3.67;1.20;;;28.40;27.00;;;;;;4905732;29;20049;-83
2023/04/13 09:04:09;;;;;;;2.83;0.65;;;27.50;27.70;;;;;;4905176;29;20039;-84
2023/04/13 09:06:41;;;;;;;3.60;1.17;;;26.30;28.70;;;;;;4905361;29;20049;-84
2023/04/13 09:09:15;;;;;;;4.88;0.68;;;25.90;29.50;;;;;;4905199;29;20047;-85
2023/04/13 09:11:42;;;;;;;2.75;0.80;;;25.60;29.90;;;;;;4917794;29;20028;-84
2023/04/13 09:14:08;;;;;;;3.65;0.75;;;24.00;31.70;;;;;;4914324;29;20040;-83
2023/04/13 09:16:39;;;;;;;5.35;0.88;;;22.80;32.80;;;;;;4905396;29;20032;-85
2023/04/13 09:19:05;;;;;;;4.28;1.35;;;22.30;33.80;;;;;;4922670;29;20089;-84
2023/04/13 09:21:39;;;;;;;5.50;0.73;;;22.00;33.20;;;;;;4922801;29;20592;-84
2023/04/13 09:24:05;;;;;;;2.05;0.65;;;21.20;34.00;;;;;;4920700;29;20036;-83
2023/04/13 09:26:43;;;;;;;3.50;0.50;;;20.80;36.00;;;;;;4922472;29;20031;-84
2023/04/13 09:29:16;;;;;;;4.57;0.55;;;20.20;35.80;;;;;;4905513;29;20032;-84
2023/04/13 09:31:42;;;;;;;2.17;0.55;;;20.00;37.00;;;;;;4913528;29;20107;-84
2023/04/13 09:34:09;;;;;;;2.58;0.60;;;19.70;37.30;;;;;;4922151;29;20044;-84
2023/04/13 09:36:35;;;;;;;4.35;0.80;;;19.50;38.00;;;;;;4920436;29;20542;-84
2023/04/13 09:39:03;;;;;;;1.85;0.38;;;19.00;38.00;;;;;;4936894;29;20068;-84
2023/04/13 09:41:39;;;;;;;2.20;0.60;;;18.40;39.10;;;;;;4936932;29;20024;-83
2023/04/13 09:44:16;;;;;;;5.85;1.52;;;18.00;40.30;;;;;;4921621;29;20040;-83
2023/04/13 09:46:43;;;;;;;2.40;0.82;;;18.00;40.20;;;;;;4935707;29;20032;-83
2023/04/13 09:49:09;;;;;;;2.83;0.63;;;18.10;40.10;;;;;;4922018;29;20088;-83
2023/04/13 09:51:39;;;;;;;3.42;0.82;;;19.00;39.50;;;;;;4936252;29;20028;-84
2023/04/13 09:54:06;;;;;;;5.88;0.70;;;19.80;38.60;;;;;;4921897;29;20039;-84
2023/04/13 09:57:03;;;;;;;4.55;0.65;;;20.50;36.70;;;;;;4921887;29;20017;-84
2023/04/13 09:59:31;;;;;;;1.52;0.50;;;20.90;36.30;;;;;;4936183;29;20060;-85
2023/04/13 10:01:57;;;;;;;2.63;0.90;;;21.30;35.50;;;;;;4921723;29;20020;-84
2023/04/13 10:04:23;;;;;;;1.98;0.57;;;22.00;34.30;;;;;;4920377;29;20038;-84
2023/04/13 10:06:49;;;;;;;3.15;0.70;;;22.70;34.40;;;;;;4921418;29;20040;-84
2023/04/13 10:09:15;;;;;;;2.78;0.50;;;22.70;33.20;;;;;;4920383;29;20043;-84
2023/04/13 10:11:50;;;;;;;3.95;0.70;;;22.30;34.40;;;;;;4934049;29;20111;-84
2023/04/13 10:14:24;;;;;;;2.72;0.57;;;21.80;34.80;;;;;;4939130;29;20035;-84
2023/04/13 10:17:18;;;;;;;3.50;0.57;;;21.30;35.50;;;;;;4929861;29;20024;-84
2023/04/13 10:19:50;;;;;;;2.45;0.47;;;20.70;36.30;;;;;;4921224;29;20088;-87
2023/04/13 10:22:16;;;;;;;2.80;0.60;;;20.10;36.90;;;;;;4935774;29;20685;-86
2023/04/13 10:24:43;;;;;;;2.28;0.90;;;19.70;37.50;;;;;;4920727;29;20029;-89
2023/04/13 10:27:20;;;;;;;3.63;0.88;;;19.80;37.70;;;;;;4921180;29;20043;-84
2023/04/13 10:29:46;;;;;;;3.00;0.65;;;19.80;38.20;;;;;;4936097;29;20039;-86
2023/04/13 10:32:26;;;;;;;4.63;0.80;;;19.80;37.60;;;;;;4920425;29;20071;-85
2023/04/13 10:34:53;;;;;;;7.55;1.02;;;19.50;38.40;;;;;;4921396;29;20551;-84
2023/04/13 10:37:21;;;;;;;1.92;0.60;;;19.30;37.90;;;;;;4903494;29;20035;-85
2023/04/13 10:39:48;;;;;;;2.75;0.70;;;19.10;38.30;;;;;;4920912;29;20028;-88
2023/04/13 10:42:14;;;;;;;3.95;0.60;;;18.90;38.80;;;;;;4904628;29;20028;-83
2023/04/13 10:44:43;;;;;;;2.80;0.73;;;18.80;39.50;;;;;;4920549;29;20028;-82
2023/04/13 10:47:10;;;;;;;3.75;0.75;;;18.70;39.00;;;;;;4919436;29;20120;-82
2023/04/13 10:49:37;;;;;;;2.17;0.65;;;18.40;38.80;;;;;;4920818;29;20036;-80
2023/04/13 10:52:03;;;;;;;2.35;0.50;;;18.50;39.80;;;;;;4920941;29;20043;-80
2023/04/13 10:54:29;;;;;;;1.10;0.35;;;18.50;39.80;;;;;;4920152;29;20028;-80
2023/04/13 10:57:00;;;;;;;4.43;0.55;;;18.30;39.40;;;;;;4920435;29;20028;-83
2023/04/13 10:59:42;;;;;;;2.13;0.60;;;18.00;39.80;;;;;;4919368;29;20028;-83
2023/04/13 11:02:11;;;;;;;2.72;0.82;;;17.50;40.30;;;;;;4919227;29;20032;-86
2023/04/13 11:04:41;;;;;;;1.60;0.73;;;17.00;42.10;;;;;;4920212;29;20032;-84
2023/04/13 11:07:14;;;;;;;;;;;16.70;43.80;;;;;;4903584;29;20059;-77
2023/04/13 11:09:42;;;;;;;2.95;0.80;;;16.10;50.00;;;;;;4920189;29;19911;-83
2023/04/13 11:12:10;;;;;;;2.35;0.95;;;15.60;51.80;;;;;;4935721;29;20122;-83
2023/04/13 11:14:37;;;;;;;1.15;0.68;;;15.50;54.10;;;;;;4926615;29;20111;-82
2023/04/13 11:17:07;;;;;;;2.17;0.45;;;16.00;55.40;;;;;;4919757;29;20032;-81
2023/04/13 11:19:44;;;;;;;2.42;0.70;;;16.30;54.60;;;;;;4920426;29;20156;-78
2023/04/13 11:22:10;;;;;;;1.90;0.70;;;16.50;55.30;;;;;;4920213;29;20164;-77
2023/04/13 11:24:35;;;;;;;1.77;0.70;;;16.60;54.30;;;;;;4919730;29;20039;-79
2023/04/13 11:27:02;;;;;;;2.72;0.63;;;16.80;53.10;;;;;;4903337;29;20028;-78
2023/04/13 11:29:28;;;;;;;5.00;1.30;;;16.60;50.70;;;;;;4903284;29;20028;-78
2023/04/13 11:31:54;;;;;;;2.00;0.63;;;16.50;53.10;;;;;;4929449;29;20040;-77
2023/04/13 11:34:25;;;;;;;4.13;0.57;;;16.30;52.10;;;;;;4919411;29;20040;-75
2023/04/13 11:37:01;;;;;;;2.75;0.82;;;16.20;54.00;;;;;;4919896;29;20102;-77
2023/04/13 11:39:27;;;;;;;1.63;0.70;;;15.90;53.60;;;;;;4919959;29;20046;-77
2023/04/13 11:41:55;;;;;;;1.25;0.38;;;16.00;55.10;;;;;;4934179;29;20024;-75
2023/04/13 11:44:21;;;;;;;0.45;0.30;;;16.20;53.40;;;;;;4934750;29;20043;-76
2023/04/13 11:46:51;;;;;;;0.73;0.32;;;16.50;53.50;;;;;;4919664;29;20035;-74
2023/04/13 11:49:17;;;;;;;0.83;0.27;;;16.60;52.40;;;;;;4919666;29;20395;-76
2023/04/13 11:51:42;;;;;;;1.42;0.40;;;16.50;50.50;;;;;;4918761;29;20040;-75
2023/04/13 11:54:08;;;;;;;0.40;0.28;;;16.30;50.60;;;;;;4934092;29;20029;-75
2023/04/13 11:56:34;;;;;;;0.75;0.50;;;16.20;51.50;;;;;;4920170;29;20112;-79
2023/04/13 11:59:00;;;;;;;2.90;0.40;;;15.90;51.60;;;;;;4919645;29;20030;-76
2023/04/13 12:01:26;;;;;;;2.85;0.38;;;16.00;51.50;;;;;;4919611;29;20028;-76
2023/04/13 12:03:52;;;;;;;2.05;0.30;;;16.00;52.90;;;;;;4918044;29;21930;-76
2023/04/13 12:06:17;;;;;;;3.83;0.70;;;15.90;51.50;;;;;;4919270;29;20040;-75
2023/04/13 12:08:43;;;;;;;1.20;0.35;;;15.80;52.80;;;;;;4933967;29;20039;-75
2023/04/13 12:11:09;;;;;;;0.95;0.68;;;15.50;52.40;;;;;;4934478;29;20040;-76
2023/04/13 12:13:43;;;;;;;1.52;0.60;;;15.20;54.30;;;;;;4918461;29;20035;-75
2023/04/13 12:16:11;;;;;;;4.78;0.85;;;14.90;55.90;;;;;;4919014;29;20095;-75
2023/04/13 12:18:42;;;;;;;4.55;0.90;;;14.90;56.90;;;;;;4919588;29;20032;-76
2023/04/13 12:21:13;;;;;;;3.30;0.70;;;14.80;58.70;;;;;;4917127;29;20082;-76
2023/04/13 12:23:38;;;;;;;1.73;0.70;;;15.10;59.40;;;;;;4919398;29;20472;-76
2023/04/13 12:26:04;;;;;;;4.32;1.08;;;15.40;60.40;;;;;;4919505;29;20063;-76
2023/04/13 12:28:35;;;;;;;3.30;0.75;;;15.50;58.20;;;;;;4918895;29;20660;-76
2023/04/13 12:31:08;;;;;;;2.13;0.60;;;15.20;59.10;;;;;;4918860;29;20052;-76
2023/04/13 12:33:35;;;;;;;3.92;0.80;;;15.10;59.20;;;;;;4903991;29;20055;-76
2023/04/13 12:36:01;;;;;;;1.75;0.43;;;14.80;58.80;;;;;;4918694;29;20486;-75
2023/04/13 12:38:27;;;;;;;1.83;0.60;;;14.70;59.50;;;;;;4919349;29;20024;-75
2023/04/13 12:40:57;;;;;;;1.70;0.75;;;14.60;61.00;;;;;;4918821;29;20100;-75
2023/04/13 12:43:23;;;;;;;1.70;0.57;;;14.50;61.30;;;;;;4900325;29;20024;-77
2023/04/13 12:45:49;;;;;;;0.63;0.43;;;14.30;61.10;;;;;;4905051;29;20044;-75
2023/04/13 12:48:14;;;;;;;2.10;1.38;;;14.60;61.30;;;;;;4918091;29;20028;-75
2023/04/13 12:50:41;;;;;;;2.28;0.70;;;14.60;61.10;;;;;;4901295;29;20043;-75
2023/04/13 12:53:07;;;;;;;2.33;1.50;;;14.80;59.80;;;;;;4919095;29;20071;-75
2023/04/13 12:55:33;;;;;;;1.73;0.90;;;15.00;60.20;;;;;;4919466;29;20028;-75
2023/04/13 12:57:58;;;;;;;2.88;0.60;;;15.30;59.30;;;;;;4918606;29;20029;-78
2023/04/13 13:00:24;;;;;;;1.48;0.52;;;15.50;60.10;;;;;;4919171;29;20031;-85
2023/04/13 13:02:53;;;;;;;1.92;0.57;;;15.70;61.70;;;;;;4917433;29;20028;-85
2023/04/13 13:05:18;;;;;;;1.35;0.52;;;15.50;59.10;;;;;;4918592;29;20063;-85
2023/04/13 13:07:44;;;;;;;2.13;0.75;;;15.50;61.10;;;;;;4918573;29;20103;-86
2023/04/13 13:10:10;;;;;;;3.50;0.60;;;15.60;62.00;;;;;;4919505;29;20040;-82
2023/04/13 13:12:36;;;;;;;1.08;0.50;;;15.70;60.80;;;;;;4938139;29;20031;-85
2023/04/13 13:15:03;;;;;;;2.75;0.47;;;15.70;59.20;;;;;;4922497;29;20096;-82
2023/04/13 13:17:29;;;;;;;2.55;1.20;;;15.50;56.90;;;;;;4918654;29;20060;-83
2023/04/13 13:19:55;;;;;;;2.28;1.00;;;15.30;56.80;;;;;;4902246;29;20040;-83
2023/04/13 13:22:21;;;;;;;0.95;0.75;;;14.90;56.70;;;;;;4903795;29;20039;-83
2023/04/13 13:24:47;;;;;;;0.82;0.40;;;14.60;57.10;;;;;;4918300;29;20036;-83
2023/04/13 13:27:12;;;;;;;2.25;0.98;;;14.40;58.00;;;;;;4921875;29;20028;-83
2023/04/13 13:29:38;;;;;;;0.80;0.60;;;14.40;57.50;;;;;;4922389;29;20036;-84
2023/04/13 13:32:04;;;;;;;1.45;0.40;;;14.50;58.10;;;;;;4922324;29;20497;-83
2023/04/13 13:34:30;;;;;;;0.77;0.50;;;14.60;57.50;;;;;;4903998;29;20491;-84
2023/04/13 13:36:56;;;;;;;1.20;0.40;;;14.80;57.20;;;;;;4905309;29;20028;-84
2023/04/13 13:39:22;;;;;;;0.57;0.47;;;15.00;56.90;;;;;;4921791;29;20032;-83
2023/04/13 13:41:48;;;;;;;1.80;0.50;;;14.90;54.40;;;;;;4921951;29;20364;-83
2023/04/13 13:44:15;;;;;;;1.20;0.60;;;14.80;55.20;;;;;;4932685;29;20099;-83
2023/04/13 13:46:40;;;;;;;1.65;0.65;;;15.00;55.40;;;;;;4920765;29;20483;-83
2023/04/13 13:49:06;;;;;;;2.35;0.60;;;15.30;56.70;;;;;;4913751;29;20036;-84
2023/04/13 13:51:32;;;;;;;1.88;0.68;;;15.50;55.90;;;;;;4922264;29;20060;-83
2023/04/13 13:53:58;;;;;;;0.88;0.50;;;15.60;55.90;;;;;;4904821;29;20043;-84
2023/04/13 13:56:24;;;;;;;0.82;0.50;;;15.60;55.70;;;;;;4920408;29;20401;-84
2023/04/13 13:58:50;;;;;;;0.50;0.30;;;15.50;54.30;;;;;;4905094;29;20024;-83
2023/04/13 14:01:16;;;;;;;1.55;0.60;;;15.50;53.60;;;;;;4904900;29;20088;-83
2023/04/13 14:03:42;;;;;;;0.77;0.55;;;15.70;54.10;;;;;;4921777;29;20087;-84
2023/04/13 14:06:08;;;;;;;1.08;0.52;;;15.90;53.40;;;;;;4888298;29;20036;-84
2023/04/13 14:08:34;;;;;;;0.88;0.52;;;16.00;53.80;;;;;;4888955;29;20406;-83
2023/04/13 14:11:00;;;;;;;1.70;0.47;;;16.20;52.60;;;;;;4928888;29;20032;-84
2023/04/13 14:13:26;;;;;;;1.00;0.57;;;16.00;52.30;;;;;;4940460;29;20561;-84
2023/04/13 14:15:52;;;;;;;1.25;0.50;;;15.80;51.80;;;;;;4929157;29;20499;-83
2023/04/13 14:18:17;;;;;;;0.35;0.30;;;15.60;52.10;;;;;;4921577;29;20059;-84
2023/04/13 14:20:43;;;;;;;1.52;0.70;;;15.30;51.30;;;;;;4921853;29;20047;-83
2023/04/13 14:23:09;;;;;;;2.05;0.55;;;15.10;52.50;;;;;;4920737;29;20107;-84
2023/04/13 14:25:35;;;;;;;0.95;0.45;;;15.00;53.30;;;;;;4904478;29;20031;-84
2023/04/13 14:28:01;;;;;;;0.60;0.50;;;15.10;53.90;;;;;;4920970;29;20503;-84
2023/04/13 14:30:27;;;;;;;0.60;0.40;;;15.10;56.20;;;;;;4884651;29;20033;-84
2023/04/13 14:32:53;;;;;;;0.95;0.30;;;15.20;54.10;;;;;;4931454;29;20036;-84
2023/04/13 14:35:18;;;;;;;10.73;5.63;;;15.20;54.50;;;;;;4921157;29;20028;-84
2023/04/13 14:37:46;;;;;;;1.30;0.73;;;15.20;53.70;;;;;;4903949;29;20474;-84
2023/04/13 14:40:15;;;;;;;0.85;0.47;;;15.20;55.50;;;;;;4919716;29;20016;-83
2023/04/13 14:42:42;;;;;;;2.97;0.90;;;15.20;54.00;;;;;;4911212;29;20032;-83
2023/04/13 14:45:11;;;;;;;1.67;1.00;;;15.20;53.00;;;;;;4920629;29;20047;-83
2023/04/13 14:47:37;;;;;;;1.00;0.60;;;15.30;52.80;;;;;;4920403;29;20032;-83
2023/04/13 14:50:03;;;;;;;1.45;0.47;;;15.30;53.30;;;;;;4904071;29;20036;-84
2023/04/13 14:52:29;;;;;;;1.00;0.50;;;15.50;53.40;;;;;;4903713;29;20406;-84
2023/04/13 14:54:55;;;;;;;1.45;0.73;;;15.70;53.80;;;;;;4900496;29;20036;-82
2023/04/13 14:57:21;;;;;;;1.17;0.60;;;15.70;53.50;;;;;;4900938;29;20029;-83
2023/04/13 14:59:47;;;;;;;1.23;0.70;;;15.50;51.20;;;;;;4901804;29;20028;-83
2023/04/13 15:02:13;;;;;;;1.10;0.68;;;15.40;51.30;;;;;;4904209;29;20510;-82
2023/04/13 15:04:41;;;;;;;2.05;0.88;;;15.20;51.90;;;;;;4903270;29;20566;-83
2023/04/13 15:07:08;;;;;;;1.65;0.90;;;15.10;52.00;;;;;;4917306;29;20082;-83
2023/04/13 15:09:34;;;;;;;1.80;1.42;;;14.90;53.10;;;;;;4919373;29;20059;-84
2023/04/13 15:12:00;;;;;;;0.80;0.57;;;14.80;53.80;;;;;;4935575;29;20402;-83
2023/04/13 15:14:25;;;;;;;1.23;0.90;;;14.80;54.50;;;;;;4922940;29;20030;-84
2023/04/13 15:16:51;;;;;;;0.85;0.60;;;14.80;54.90;;;;;;4920366;29;20032;-83
2023/04/13 15:19:17;;;;;;;3.10;1.00;;;14.80;54.70;;;;;;4920504;29;20435;-84
2023/04/13 15:21:42;;;;;;;2.80;0.47;;;14.90;54.80;;;;;;4902585;29;20034;-84
2023/04/13 15:24:11;;;;;;;1.73;0.60;;;15.10;52.40;;;;;;4919816;29;20036;-83
2023/04/13 15:26:41;;;;;;;2.15;1.75;;;15.20;51.70;;;;;;4903188;29;20520;-83
2023/04/13 15:29:07;;;;;;;2.38;1.10;;;15.20;52.20;;;;;;4920289;29;20055;-84
2023/04/13 15:31:37;;;;;;;1.67;1.17;;;15.20;51.70;;;;;;4935431;29;20047;-83
2023/04/13 15:34:05;;;;;;;1.35;0.50;;;15.10;52.40;;;;;;4928313;29;20138;-80
2023/04/13 15:36:30;;;;;;;1.85;0.50;;;15.00;52.10;;;;;;4935431;29;20060;-85
2023/04/13 15:38:56;;;;;;;1.00;0.60;;;15.00;51.40;;;;;;4927367;29;20035;-83
2023/04/13 15:41:22;;;;;;;1.40;0.63;;;15.10;51.80;;;;;;4929345;29;20124;-81
2023/04/13 15:43:51;;;;;;;1.23;0.50;;;15.10;50.70;;;;;;4926981;29;20027;-83
2023/04/13 15:46:16;;;;;;;1.60;1.05;;;15.00;51.20;;;;;;4908987;29;20032;-83
2023/04/13 15:48:42;;;;;;;3.35;1.00;;;15.00;51.30;;;;;;4929625;29;20099;-83
2023/04/13 15:51:08;;;;;;;4.95;1.33;;;14.90;51.30;;;;;;4926420;29;20075;-84
2023/04/13 15:53:34;;;;;;;2.35;0.75;;;14.80;51.40;;;;;;4927155;29;20087;-85
2023/04/13 15:56:00;;;;;;;1.88;0.65;;;14.80;51.90;;;;;;4927009;29;20023;-88
2023/04/13 15:58:25;;;;;;;2.55;0.85;;;14.70;51.50;;;;;;4926141;29;20604;-86
2023/04/13 16:01:06;;;;;;;0.75;0.60;;;14.60;51.90;;;;;;4932311;29;20055;-91
2023/04/13 16:03:33;;;;;;;2.15;1.05;;;14.50;51.60;;;;;;4918841;29;20032;-88
2023/04/13 16:05:59;;;;;;;1.50;0.80;;;14.40;52.20;;;;;;4915956;29;20428;-85
2023/04/13 16:08:25;;;;;;;2.45;1.35;;;14.30;52.90;;;;;;4920610;29;20039;-84
2023/04/13 16:10:52;;;;;;;6.10;2.15;;;14.30;54.60;;;;;;4906114;29;20511;-85
2023/04/13 16:13:18;;;;;;;3.10;1.88;;;14.20;55.60;;;;;;4923280;29;20046;-87
2023/04/13 16:16:03;;;;;;;4.00;1.55;;;14.20;57.70;;;;;;4925225;29;20024;-87
2023/04/13 16:18:31;;;;;;;3.53;0.95;;;14.10;58.80;;;;;;4925709;29;20059;-85
2023/04/13 16:20:58;;;;;;;1.52;0.70;;;14.00;59.10;;;;;;4924880;29;20115;-86
2023/04/13 16:23:28;;;;;;;1.70;0.70;;;14.00;59.10;;;;;;4930362;29;20031;-86
2023/04/13 16:25:54;;;;;;;4.72;1.33;;;14.00;60.40;;;;;;4927086;29;20031;-87
2023/04/13 16:28:20;;;;;;;1.48;0.90;;;14.00;60.10;;;;;;4923180;29;20032;-87
2023/04/13 16:30:46;;;;;;;2.35;0.88;;;14.10;60.60;;;;;;4932130;29;20039;-85
2023/04/13 16:33:12;;;;;;;1.98;0.80;;;14.10;60.60;;;;;;4927920;29;20497;-85
2023/04/13 16:35:37;;;;;;;1.42;0.80;;;14.10;60.00;;;;;;4928508;29;20399;-86
2023/04/13 16:38:03;;;;;;;3.20;0.73;;;14.10;60.80;;;;;;4917178;29;20789;-83
2023/04/13 16:40:29;;;;;;;2.97;1.20;;;14.10;61.50;;;;;;4935414;29;20035;-78
2023/04/13 16:42:54;;;;;;;2.88;0.90;;;14.00;61.20;;;;;;4919952;29;20036;-81
2023/04/13 16:45:20;;;;;;;1.80;1.30;;;14.00;61.60;;;;;;4919768;29;20479;-90
2023/04/13 16:47:48;;;;;;;2.38;1.20;;;13.90;62.20;;;;;;4933501;29;20068;-90
2023/04/13 16:50:14;;;;;;;1.90;1.10;;;13.80;62.20;;;;;;4932204;29;20475;-90
2023/04/13 16:52:40;;;;;;;2.80;1.42;;;13.80;62.00;;;;;;4923906;29;20036;-92
2023/04/13 16:55:06;;;;;;;5.03;2.15;;;13.80;62.50;;;;;;4912869;29;20028;-92
2023/04/13 16:57:32;;;;;;;3.88;1.58;;;13.80;63.30;;;;;;4923188;29;20051;-92
2023/04/13 16:59:59;;;;;;;2.22;1.27;;;13.70;63.20;;;;;;4923157;29;20024;-90
2023/04/13 17:02:25;;;;;;;4.57;1.40;;;13.70;63.00;;;;;;4938566;29;20032;-90
2023/04/13 17:04:53;;;;;;;1.95;1.20;;;13.70;62.70;;;;;;4923214;29;20044;-90
2023/04/13 17:07:22;;;;;;;4.43;1.75;;;13.70;61.80;;;;;;4938343;29;20029;-89
2023/04/13 17:09:48;;;;;;;2.35;0.90;;;13.70;62.50;;;;;;4939189;29;20399;-89
2023/04/13 17:12:13;;;;;;;3.75;0.93;;;13.80;62.80;;;;;;4938607;29;20115;-90
2023/04/13 17:14:39;;;;;;;1.27;0.90;;;13.80;62.60;;;;;;4923595;29;20036;-92
2023/04/13 17:17:05;;;;;;;1.92;1.10;;;13.80;62.80;;;;;;4922639;29;20039;-90
2023/04/13 17:19:30;;;;;;;3.15;1.08;;;13.70;62.60;;;;;;4929114;29;20043;-88